Delray Beach, FL (33444)

9:26 PM EDT on October 20, 2014 (GMT -0400)
Lake Ida | Change Station
CLOSE
Current Station
Personal Weather Station
Location: Delray Beach, FL
Elevation: 10 ft
Nearby Weather Stations

Elev 10 ft 26.47 °N, 80.08 °W | Updated 9 seconds ago

Overcast
Overcast
79.0 °F
Feels Like 81 °F
N
4.0
Wind Variable Wind from SSE
Gusts 4.0 mph

Today
High -- | Low -- °F
--% Chance of Precip.
Yesterday
High -- | Low -- °F
Precip. -- in
7:22 AM 6:47 PM
Waning Crescent, 8% visible
Pressure 29.97 in
Visibility 10.0 miles
Clouds Few 3400 ft
Mostly Cloudy 4100 ft
Mostly Cloudy 4900 ft
Heat Index 81 °F
Dew Point 68 °F
Humidity 69%
Rainfall 0.00 in
Snow Depth Not available.
UV 0 out of 12
Pollen 4.50 out of 12
Ozone Good
PM2.5 Good
Flu Activity Local Activity
METAR KPMP 210053Z AUTO 11007KT 10SM FEW034 BKN041 BKN049 28/19 A2997 RMK AO2 SLP148 T02780194

More Conditions Fewer Conditions

Pressure 29.97 in
Visibility 10.0 miles
Clouds Few 3400 ft
Mostly Cloudy 4100 ft
Mostly Cloudy 4900 ft
Heat Index 81 °F
Dew Point 68 °F
Humidity 69%
Rainfall 0.00 in
Snow Depth Not available.
UV 0 out of 12
Pollen 4.50 out of 12
Ozone Good
PM2.5 Good
Flu Activity Local Activity
METAR KPMP 210053Z AUTO 11007KT 10SM FEW034 BKN041 BKN049 28/19 A2997 RMK AO2 SLP148 T02780194

More Conditions Fewer Conditions

10-Day Weather Forecast

Almanac

Astronomy

Oct. 20, 2014 Rise Set
Actual Time 7:22 AM EDT 6:47 PM EDT
Civil Twilight 6:58 AM EDT 7:10 PM EDT
Nautical Twilight 6:31 AM EDT 7:37 PM EDT
Astronomical Twilight 6:04 AM EDT 8:04 PM EDT
Moon 4:26 AM EDT (10/20) 4:54 PM EDT (10/20)
Length of Visible Light 12h 12m
Length of Day
11h 25m
Tomorrow will be 1m 28s shorter.
Waning Crescent, 8% of the Moon is Illuminated
Today
Waning Crescent
Oct 23
New
Oct 30
First Quarter
Nov 6
Full
Nov 14
Last Quarter

Today's Extremes

State Highs State Lows

Community

WunderPhotos

Upload Photos

1,763,577 photos uploaded!

Nearby

Air Quality

  Air Quality AQ Index Pollutant
Yesterday Good
PM2.5
Yesterday Good
OZONE
Current Good
PM2.5
Current Good
OZONE
Monday Good
OZONE
Monday Good
PM2.5
Tuesday Good
OZONE
Tuesday Good
PM2.5
Wednesday Good
OZONE
Wednesday Good
PM2.5

Snow Depth

Station Depth Elevation
No new snow has been reported.

Earthquake Activity

City Distance Mag. Time & Date
No recent earthquake activity has been reported nearby.
Minimum magnitude displayed is 2.5.

Coastal Water Temperatures

Place Temperature
Lake Worth, FL 82.9 °F
Virginia Key, FL 82.0 °F

Nearby Weather Stations